To NAV CANADA Home Page Login to a new session Search on AWWS site Feedback and Comments Disclaimer Vers la page française équivalente Tips FAQ What's new on the site To the Forecasts and Observations / NOTAM section To "File a Flight Plan" website Publications and other links Update of the User's profile FIC Telephone Numbers My Weather Data Folder Route Weather Data Regional Weather Data Local Weather Data To the Forecasts and Observations / NOTAM section
Request Generated 01/17/2017 at 04:43:52 UTC . Weather information available at that time is displayed.

METAR/TAF

KITCHENER/WATERLOO/ON    (show WxCam)

SPECI CYKF 170425Z AUTO 02002KT 7SM -FZRA BKN030 OVC041 M00/M03 A3018
RMK ICG SLP235=
SPECI CYKF 170419Z AUTO 00000KT 8SM -FZRA -SN OVC032 M00/M03 A3018
RMK ICG SLP235=
SPECI CYKF 170416Z AUTO VRB02KT 9SM -SN OVC034 M00/M03 A3018 RMK ICG
SLP236=
METAR CYKF 170400Z AUTO 00000KT 9SM -SN OVC034 M00/M04 A3019 RMK
SLP238=
SPECI CYKF 170306Z AUTO 19005KT 9SM -SN BKN038 OVC047 M00/M05 A3020
RMK SLP243=
METAR CYKF 170300Z AUTO 19003KT 9SM -RASN BKN038 BKN047 BKN055 OVC074
M00/M05 A3020 RMK SLP243=
SPECI CYKF 170256Z AUTO 19003KT 9SM -RASN SCT038 BKN045 BKN055 OVC076
M00/M05 A3020 RMK SLP245=
SPECI CYKF 170251Z AUTO 19004KT 9SM -SN FEW038 SCT045 BKN055 OVC077
00/M05 A3020 RMK SLP245=
SPECI CYKF 170228Z AUTO 19004KT 9SM FEW055 SCT069 BKN080 OVC120
M00/M05 A3021 RMK SLP247=
SPECI CYKF 170213Z AUTO 18004KT 9SM -SN OVC070 M00/M05 A3021 RMK
SLP248=
SPECI CYKF 170206Z AUTO 16004KT 9SM OVC075 M00/M04 A3021 RMK SLP248=
METAR CYKF 170200Z AUTO 14003KT 9SM -RA OVC075 M00/M04 A3022 RMK
SLP249=

TAF CYKF 170138Z 1702/1705 VRB03KT P6SM -RA OVC070 TEMPO 1702/1704
5SM -FZRA BR OVC030
FM170400 10005KT 6SM -FZRA BR OVC030 TEMPO 1704/1705 4SM -RA BR
OVC020
RMK FCST BASED ON AUTO OBS. NXT FCST WILL BE ISSUED AT 171045Z=
Your time UTC time
Weather data provided by Environment Canada and NAV CANADA